Sedona, AZ (86336)

6:36 AM MST on September 01, 2015 (GMT -0700)
Northview | | Change Station
CLOSE
Current Station
Personal Weather Station
Location: Sedona, AZ
Elevation: 4396 ft
Nearby Weather Stations

Elev 4396 ft 34.86 °N, 111.79 °W | Updated 1 second ago

Clear
Clear
63.1 °F
Feels Like 63.1 °F
N
2.2
Wind Variable Wind from North
Gusts 3.1 mph

Today
High -- | Low -- °F
--% Chance of Precip.
Yesterday
High -- | Low -- °F
Precip. -- in
5:59 AM 6:53 PM
Waning Gibbous, 89% visible
Pressure 29.92 in
Visibility 10.0 miles
Clouds Clear
Dew Point 58 °F
Humidity 84%
Rainfall 0.00 in
Snow Depth Not available.
UV 0 out of 12
Pollen 5.70 out of 12
Air Quality Not available.
Flu Activity Not available.
METAR KPRC 011253Z 00000KT 10SM CLR 16/13 A3015 RMK AO2 SLP130 T01560133 $
Pressure 29.92 in
Visibility 10.0 miles
Clouds Clear
Dew Point 58 °F
Humidity 84%
Rainfall 0.00 in
Snow Depth Not available.
UV 0 out of 12
Pollen 5.70 out of 12
Air Quality Not available.
Flu Activity Not available.
METAR KPRC 011253Z 00000KT 10SM CLR 16/13 A3015 RMK AO2 SLP130 T01560133 $

10-Day Weather Forecast

×

Almanac

Astronomy

Sep. 01, 2015 Rise Set
Actual Time
Civil Twilight
Nautical Twilight
Astronomical Twilight
Moon
Length of Visible Light
Length of Day
Tomorrow will be .
, % of the Moon is Illuminated

Today's Extremes

State Highs State Lows

Community

WunderPhotos

Upload Photos

1,851,513 photos uploaded!

WunderBlogs® & News

Nearby

Air Quality

  Air Quality AQ Index Pollutant
Not available.

Snow Depth

Station Depth Elevation

Earthquake Activity

City Distance Mag. Time & Date
Minimum magnitude displayed is 2.5.

Coastal Water Temperatures

Place Temperature

Stations

Nearby Weather Stations

Station Location Temp. Windchill Dew Point Humidity Wind Precip. Elev Updated Type